createdAt,value
2019-01-27T00:01:32.374Z,94.41
2019-01-27T00:04:02.629Z,94.29
2019-01-27T00:06:32.752Z,94.46
2019-01-27T00:09:04.910Z,94.52
2019-01-27T00:11:35.924Z,94.36
2019-01-27T00:14:06.906Z,94.54
2019-01-27T00:16:37.459Z,94.87
2019-01-27T00:19:08.174Z,94.87
2019-01-27T00:21:38.540Z,94.89
2019-01-27T00:24:10.185Z,95.27
2019-01-27T00:26:40.344Z,95.38
2019-01-27T00:29:10.894Z,95.36
2019-01-27T00:31:41.568Z,95.20
2019-01-27T00:34:11.597Z,95.20
2019-01-27T00:36:41.878Z,95.41
2019-01-27T00:39:12.794Z,95.46
2019-01-27T00:41:43.324Z,95.51
2019-01-27T00:44:14.648Z,95.41
2019-01-27T00:46:45.179Z,95.34
2019-01-27T00:49:15.537Z,95.52
2019-01-27T00:51:45.682Z,95.37
2019-01-27T00:54:16.168Z,95.55
2019-01-27T00:56:46.373Z,95.44
2019-01-27T00:59:16.574Z,95.40
2019-01-27T01:01:46.820Z,95.38
2019-01-27T01:04:17.126Z,95.32
2019-01-27T01:06:47.808Z,95.33
2019-01-27T01:09:18.366Z,95.25
2019-01-27T01:11:48.690Z,95.11
2019-01-27T01:14:19.118Z,95.31
2019-01-27T01:16:49.457Z,95.84
2019-01-27T01:19:19.723Z,95.69
2019-01-27T01:21:50.418Z,95.54
2019-01-27T01:24:20.846Z,95.59
2019-01-27T01:26:51.416Z,95.54
2019-01-27T01:29:21.560Z,95.62
2019-01-27T01:31:51.877Z,95.46
2019-01-27T01:34:22.370Z,95.56
2019-01-27T01:36:52.767Z,95.43
2019-01-27T01:39:28.870Z,95.56
2019-01-27T01:41:59.453Z,95.44
2019-01-27T01:44:30.095Z,95.37
2019-01-27T01:47:00.574Z,95.29
2019-01-27T01:49:30.926Z,95.29
2019-01-27T01:52:01.390Z,95.25
2019-01-27T01:54:31.976Z,95.34
2019-01-27T01:57:02.907Z,95.56
2019-01-27T01:59:33.247Z,95.51
2019-01-27T02:02:03.850Z,95.36
2019-01-27T02:04:34.332Z,95.38
2019-01-27T02:07:04.578Z,95.36
2019-01-27T02:09:35.000Z,95.30
2019-01-27T02:12:05.456Z,95.50
2019-01-27T02:14:36.014Z,95.54
2019-01-27T02:17:06.432Z,95.62
2019-01-27T02:19:36.579Z,95.74
2019-01-27T02:22:07.515Z,95.74
2019-01-27T02:24:38.679Z,96.10
2019-01-27T02:27:08.956Z,96.13
2019-01-27T02:29:39.227Z,96.35
2019-01-27T02:32:09.663Z,96.25
2019-01-27T02:34:39.919Z,96.08
2019-01-27T02:37:10.565Z,95.87
2019-01-27T02:39:40.856Z,96.06
2019-01-27T02:42:11.682Z,96.15
2019-01-27T02:44:42.085Z,96.13
2019-01-27T02:47:12.518Z,96.13
2019-01-27T02:49:42.741Z,96.00
2019-01-27T02:52:13.280Z,95.85
2019-01-27T02:54:43.654Z,95.63
2019-01-27T02:57:14.124Z,95.68
2019-01-27T02:59:45.624Z,95.64
2019-01-27T03:02:16.190Z,95.73
2019-01-27T03:04:46.411Z,95.88
2019-01-27T03:07:26.299Z,95.78
2019-01-27T03:09:56.536Z,95.91
2019-01-27T03:12:38.093Z,96.10
2019-01-27T03:15:09.133Z,96.26
2019-01-27T03:17:39.572Z,96.14
2019-01-27T03:20:11.192Z,96.09
2019-01-27T03:22:41.672Z,96.26
2019-01-27T03:25:12.938Z,96.17
2019-01-27T03:27:43.439Z,96.20
2019-01-27T03:30:17.754Z,96.05
2019-01-27T03:32:48.745Z,95.61
2019-01-27T03:35:19.266Z,95.36
2019-01-27T03:37:49.609Z,95.46
2019-01-27T03:40:20.035Z,95.42
2019-01-27T03:42:50.806Z,95.34
2019-01-27T03:45:21.444Z,95.34
2019-01-27T03:47:52.166Z,95.40
2019-01-27T03:50:22.854Z,95.44
2019-01-27T03:52:53.415Z,95.46
2019-01-27T03:55:23.659Z,95.41
2019-01-27T03:57:54.086Z,95.58
2019-01-27T04:00:24.953Z,95.43
2019-01-27T04:02:55.780Z,95.59
2019-01-27T04:05:26.236Z,95.43
2019-01-27T04:07:56.530Z,95.64
2019-01-27T04:10:26.817Z,95.33
2019-01-27T04:12:57.422Z,95.51
2019-01-27T04:15:27.726Z,95.51
2019-01-27T04:17:58.163Z,95.70
2019-01-27T04:20:28.434Z,95.77
2019-01-27T04:22:58.747Z,95.99
2019-01-27T04:25:29.288Z,95.93
2019-01-27T04:27:59.598Z,95.96
2019-01-27T04:30:32.710Z,96.10
2019-01-27T04:33:03.063Z,95.42
2019-01-27T04:35:33.426Z,95.42
2019-01-27T04:38:03.589Z,95.21
2019-01-27T04:40:33.764Z,95.11
2019-01-27T04:43:04.422Z,94.93
2019-01-27T04:45:40.846Z,94.81
2019-01-27T04:48:11.326Z,94.67
2019-01-27T04:50:41.447Z,94.67
2019-01-27T04:53:11.742Z,94.39
2019-01-27T04:55:42.205Z,94.83
2019-01-27T04:58:12.712Z,94.70
2019-01-27T05:00:43.207Z,94.50
2019-01-27T05:03:31.007Z,94.38
2019-01-27T05:06:01.386Z,94.39
2019-01-27T05:08:31.578Z,94.37
2019-01-27T05:11:01.779Z,94.34
2019-01-27T05:13:32.215Z,94.25
2019-01-27T05:16:02.988Z,93.86
2019-01-27T05:18:33.452Z,93.63
2019-01-27T05:21:03.703Z,93.70
2019-01-27T05:23:34.021Z,93.50
2019-01-27T05:26:04.662Z,93.00
2019-01-27T05:28:35.029Z,93.00
2019-01-27T05:31:05.345Z,93.22
2019-01-27T05:33:35.630Z,93.19
2019-01-27T05:36:06.081Z,93.18
2019-01-27T05:38:36.392Z,93.34
2019-01-27T05:41:06.895Z,93.36
2019-01-27T05:43:37.460Z,93.24
2019-01-27T05:46:07.770Z,93.05
2019-01-27T05:48:38.219Z,93.05
2019-01-27T05:51:08.562Z,92.90
2019-01-27T05:53:38.762Z,92.90
2019-01-27T05:56:09.224Z,92.66
2019-01-27T05:58:39.431Z,92.59
2019-01-27T06:01:09.708Z,92.44
2019-01-27T06:03:40.164Z,92.23
2019-01-27T06:06:10.506Z,92.30
2019-01-27T06:08:41.170Z,92.24
2019-01-27T06:11:11.391Z,92.39
2019-01-27T06:13:41.497Z,92.38
2019-01-27T06:16:12.159Z,92.45
2019-01-27T06:18:43.302Z,92.50
2019-01-27T06:21:13.443Z,92.39
2019-01-27T06:23:43.528Z,92.25
2019-01-27T06:26:13.593Z,92.53
2019-01-27T06:28:43.763Z,92.50
2019-01-27T06:31:14.630Z,92.47
2019-01-27T06:33:49.290Z,92.61
2019-01-27T06:36:19.660Z,92.60
2019-01-27T06:38:49.701Z,92.60
2019-01-27T06:41:20.279Z,92.44
2019-01-27T06:43:51.014Z,92.29
2019-01-27T06:46:21.905Z,92.28
2019-01-27T06:48:52.297Z,92.20
2019-01-27T06:51:22.327Z,92.11
2019-01-27T06:53:52.471Z,92.05
2019-01-27T06:56:23.666Z,91.88
2019-01-27T06:59:16.019Z,91.67
2019-01-27T07:02:05.466Z,91.75
2019-01-27T07:04:40.605Z,92.12
2019-01-27T07:07:16.762Z,92.19
2019-01-27T07:10:06.180Z,92.04
2019-01-27T07:12:41.884Z,91.75
2019-01-27T07:15:30.418Z,91.82
2019-01-27T07:18:25.613Z,91.67
2019-01-27T07:21:26.617Z,91.72
2019-01-27T07:24:18.766Z,91.37
2019-01-27T07:26:58.050Z,91.69
2019-01-27T07:29:47.287Z,91.81
2019-01-27T07:32:51.616Z,91.41
2019-01-27T07:35:39.299Z,91.23
2019-01-27T07:38:31.655Z,91.09
2019-01-27T07:41:20.708Z,90.88
2019-01-27T07:44:10.191Z,90.71
2019-01-27T07:47:01.702Z,90.83
2019-01-27T07:49:49.535Z,90.79
2019-01-27T07:52:38.660Z,90.79
2019-01-27T07:55:33.426Z,90.42
2019-01-27T07:58:37.603Z,90.15
2019-01-27T08:01:23.252Z,90.00
2019-01-27T08:04:03.865Z,89.80
2019-01-27T08:06:53.292Z,89.52
2019-01-27T08:09:42.741Z,89.61
2019-01-27T08:12:38.089Z,89.31
2019-01-27T08:15:30.023Z,88.77
2019-01-27T08:18:19.254Z,88.67
2019-01-27T08:21:20.634Z,88.42
2019-01-27T08:24:24.739Z,88.42
2019-01-27T08:27:16.660Z,88.18
2019-01-27T08:30:05.156Z,87.82
2019-01-27T08:33:00.258Z,87.66
2019-01-27T08:35:41.078Z,87.34
2019-01-27T08:38:20.497Z,86.12
2019-01-27T08:41:15.281Z,85.41
2019-01-27T08:44:01.561Z,84.60
2019-01-27T08:46:40.064Z,83.99
2019-01-27T08:49:10.176Z,84.22
2019-01-27T08:51:41.731Z,84.08
2019-01-27T08:54:12.267Z,83.44
2019-01-27T08:56:42.386Z,83.20
2019-01-27T08:59:12.510Z,82.72
2019-01-27T09:02:04.435Z,82.70
2019-01-27T09:04:48.759Z,82.09
2019-01-27T09:07:50.126Z,81.79
2019-01-27T09:10:42.711Z,81.59
2019-01-27T09:13:40.123Z,81.97
2019-01-27T09:16:25.480Z,81.59
2019-01-27T09:19:13.293Z,81.88
2019-01-27T09:22:05.132Z,81.91
2019-01-27T09:24:45.903Z,82.53
2019-01-27T09:27:35.422Z,82.58
2019-01-27T09:30:32.869Z,81.87
2019-01-27T09:33:16.298Z,81.88
2019-01-27T09:36:11.702Z,81.88
2019-01-27T09:38:54.482Z,81.63
2019-01-27T09:41:46.916Z,81.67
2019-01-27T09:44:34.895Z,81.39
2019-01-27T09:47:31.520Z,81.66
2019-01-27T09:50:23.255Z,81.68
2019-01-27T09:53:03.644Z,81.32
2019-01-27T09:55:52.706Z,81.11
2019-01-27T09:58:45.056Z,80.58
2019-01-27T10:01:25.039Z,79.60
2019-01-27T10:04:29.195Z,78.68
2019-01-27T10:07:18.078Z,78.68
2019-01-27T10:10:12.696Z,78.65
2019-01-27T10:13:07.754Z,79.15
2019-01-27T10:15:55.562Z,78.55
2019-01-27T10:18:50.361Z,77.96
2019-01-27T10:21:27.865Z,77.28
2019-01-27T10:24:21.211Z,77.58
2019-01-27T10:27:05.804Z,76.84
2019-01-27T10:29:56.147Z,76.53
2019-01-27T10:33:03.283Z,75.58
2019-01-27T10:35:51.004Z,75.01
2019-01-27T10:38:45.909Z,74.48
2019-01-27T10:41:43.875Z,73.77
2019-01-27T10:44:48.209Z,73.28
2019-01-27T10:47:36.281Z,73.75
2019-01-27T10:50:31.767Z,73.64
2019-01-27T10:53:20.971Z,72.66
2019-01-27T10:56:10.173Z,72.21
2019-01-27T10:58:56.308Z,71.43
2019-01-27T11:02:00.723Z,71.19
2019-01-27T11:05:03.455Z,70.21
2019-01-27T11:07:50.220Z,70.19
2019-01-27T11:10:45.505Z,70.06
2019-01-27T11:13:34.638Z,69.70
2019-01-27T11:16:39.209Z,69.00
2019-01-27T11:19:23.519Z,68.71
2019-01-27T11:22:11.378Z,68.01
2019-01-27T11:25:09.208Z,67.20
2019-01-27T11:28:13.282Z,67.37
2019-01-27T11:31:04.922Z,67.87
2019-01-27T11:33:42.900Z,67.40
2019-01-27T11:36:33.450Z,67.18
2019-01-27T11:39:25.099Z,67.18
2019-01-27T11:42:12.633Z,67.27
2019-01-27T11:44:54.705Z,67.75
2019-01-27T11:47:43.758Z,67.85
2019-01-27T11:50:42.750Z,67.88
2019-01-27T11:53:13.148Z,67.83
2019-01-27T11:55:43.487Z,67.84
2019-01-27T11:58:13.741Z,67.84
2019-01-27T12:00:48.047Z,68.63
2019-01-27T12:03:18.563Z,68.30
2019-01-27T12:05:48.698Z,67.87
2019-01-27T12:08:19.732Z,67.67
2019-01-27T12:10:50.155Z,68.26
2019-01-27T12:13:20.594Z,68.10
2019-01-27T12:15:50.825Z,68.19
2019-01-27T12:18:21.347Z,68.07
2019-01-27T12:20:51.751Z,67.81
2019-01-27T12:23:22.177Z,67.85
2019-01-27T12:25:53.651Z,67.85
2019-01-27T12:28:24.209Z,67.97
2019-01-27T12:30:54.353Z,68.15
2019-01-27T12:33:24.476Z,68.63
2019-01-27T12:35:54.719Z,68.46
2019-01-27T12:38:25.367Z,68.58
2019-01-27T12:40:55.519Z,68.41
2019-01-27T12:43:25.769Z,68.93
2019-01-27T12:45:56.130Z,68.78
2019-01-27T12:48:26.335Z,68.77
2019-01-27T12:51:01.369Z,69.19
2019-01-27T12:53:31.402Z,68.78
2019-01-27T12:56:01.635Z,69.06
2019-01-27T12:58:31.798Z,69.24
2019-01-27T13:01:06.325Z,68.95
2019-01-27T13:03:36.760Z,68.86
2019-01-27T13:06:07.297Z,69.03
2019-01-27T13:08:37.407Z,68.95
2019-01-27T13:11:09.883Z,69.04
2019-01-27T13:13:40.420Z,68.65
2019-01-27T13:16:10.805Z,68.26
2019-01-27T13:18:41.362Z,68.58
2019-01-27T13:21:11.684Z,68.47
2019-01-27T13:23:41.707Z,68.46
2019-01-27T13:26:12.069Z,68.32
2019-01-27T13:28:42.435Z,67.74
2019-01-27T13:31:12.582Z,67.86
2019-01-27T13:33:42.885Z,67.97
2019-01-27T13:36:13.447Z,68.06
2019-01-27T13:38:50.863Z,68.08
2019-01-27T13:41:17.697Z,68.20
2019-01-27T13:43:48.111Z,67.96
2019-01-27T13:46:18.602Z,68.46
2019-01-27T13:48:48.974Z,68.63
2019-01-27T13:51:19.539Z,68.63
2019-01-27T13:53:49.851Z,68.42
2019-01-27T13:56:20.408Z,68.75
2019-01-27T13:58:50.601Z,68.37
2019-01-27T14:01:21.255Z,68.37
2019-01-27T14:03:51.277Z,68.02
2019-01-27T14:06:21.573Z,67.84
2019-01-27T14:08:51.844Z,68.40
2019-01-27T14:11:22.478Z,68.23
2019-01-27T14:13:52.735Z,67.83
2019-01-27T14:16:23.348Z,67.60
2019-01-27T14:18:53.666Z,67.81
2019-01-27T14:21:24.238Z,67.78
2019-01-27T14:23:54.951Z,68.10
2019-01-27T14:26:25.356Z,68.05
2019-01-27T14:28:55.621Z,68.02
2019-01-27T14:31:25.870Z,68.33
2019-01-27T14:33:56.976Z,68.46
2019-01-27T14:36:27.930Z,68.63
2019-01-27T14:38:58.622Z,68.86
2019-01-27T14:42:15.541Z,69.37
2019-01-27T14:44:48.989Z,69.65
2019-01-27T14:47:21.690Z,70.02
2019-01-27T14:49:53.039Z,69.94
2019-01-27T14:52:23.387Z,70.45
2019-01-27T14:54:54.332Z,70.79
2019-01-27T14:57:24.583Z,70.91
2019-01-27T14:59:54.828Z,71.02
2019-01-27T15:02:25.171Z,71.34
2019-01-27T15:04:55.566Z,71.67
2019-01-27T15:07:25.859Z,71.86
2019-01-27T15:09:56.739Z,71.97
2019-01-27T15:12:27.390Z,72.28
2019-01-27T15:14:57.472Z,72.65
2019-01-27T15:17:27.830Z,72.52
2019-01-27T15:19:58.240Z,72.74
2019-01-27T15:22:28.464Z,72.74
2019-01-27T15:24:58.890Z,72.51
2019-01-27T15:27:29.315Z,72.37
2019-01-27T15:29:59.701Z,72.64
2019-01-27T15:32:30.279Z,72.53
2019-01-27T15:35:00.716Z,72.74
2019-01-27T15:37:31.320Z,72.71
2019-01-27T15:40:01.950Z,72.76
2019-01-27T15:42:33.712Z,72.87
2019-01-27T15:45:04.395Z,73.06
2019-01-27T15:47:34.650Z,73.09
2019-01-27T15:50:05.868Z,73.17
2019-01-27T15:52:36.358Z,73.21
2019-01-27T15:55:10.301Z,73.36
2019-01-27T15:57:40.613Z,73.52
2019-01-27T16:00:15.022Z,73.55
2019-01-27T16:02:45.312Z,73.92
2019-01-27T16:05:17.668Z,73.33
2019-01-27T16:07:47.940Z,73.24
2019-01-27T16:10:21.010Z,73.40
2019-01-27T16:12:52.647Z,74.08
2019-01-27T16:15:25.485Z,73.92
2019-01-27T16:18:04.619Z,73.90
2019-01-27T16:20:34.917Z,73.71
2019-01-27T16:23:22.389Z,73.45
2019-01-27T16:25:52.675Z,73.54
2019-01-27T16:28:23.169Z,73.43
2019-01-27T16:31:18.592Z,73.30
2019-01-27T16:33:56.628Z,73.58
2019-01-27T16:36:38.157Z,73.63
2019-01-27T16:39:12.419Z,73.95
2019-01-27T16:41:43.766Z,73.89
2019-01-27T16:44:14.362Z,73.72
2019-01-27T16:46:44.745Z,73.93
2019-01-27T16:49:16.785Z,73.80
2019-01-27T16:51:49.115Z,73.94
2019-01-27T16:54:19.448Z,73.77
2019-01-27T16:56:51.030Z,73.40
2019-01-27T16:59:21.451Z,73.83
2019-01-27T17:01:51.615Z,73.81
2019-01-27T17:04:21.787Z,73.27
2019-01-27T17:06:52.295Z,72.94
2019-01-27T17:09:22.653Z,73.64
2019-01-27T17:11:53.310Z,74.70
2019-01-27T17:14:23.875Z,73.16
2019-01-27T17:16:54.407Z,72.17
2019-01-27T18:11:02.664Z,40.64
2019-01-27T18:32:50.012Z,39.39
2019-01-27T18:35:36.284Z,38.58
2019-01-27T19:36:34.999Z,43.79
2019-01-27T20:05:14.407Z,32.27
2019-01-27T20:08:03.618Z,34.37
2019-01-27T20:10:51.777Z,39.66
2019-01-27T20:13:40.040Z,41.44
2019-01-27T20:16:35.609Z,44.69
2019-01-27T20:19:19.099Z,47.84
2019-01-27T20:22:02.136Z,53.14
2019-01-27T20:25:00.606Z,53.16
2019-01-27T20:27:49.689Z,54.10
2019-01-27T20:30:50.725Z,56.80
2019-01-27T20:33:45.375Z,56.73
2019-01-27T20:36:40.520Z,58.05
2019-01-27T20:39:35.501Z,60.29
2019-01-27T20:42:25.253Z,59.75
2019-01-27T20:45:18.699Z,60.28
2019-01-27T20:48:11.497Z,61.39
2019-01-27T20:51:06.144Z,61.26
2019-01-27T20:53:58.163Z,63.19
2019-01-27T20:56:47.391Z,63.31
2019-01-27T20:59:34.954Z,64.04
2019-01-27T21:02:26.214Z,64.89
2019-01-27T21:05:21.208Z,63.85
2019-01-27T21:08:05.982Z,65.46
2019-01-27T21:10:55.284Z,65.51
2019-01-27T21:13:31.888Z,64.09
2019-01-27T21:16:19.822Z,65.08
2019-01-27T21:18:58.500Z,65.56
2019-01-27T21:21:38.817Z,65.94
2019-01-27T21:28:37.670Z,67.29
2019-01-27T21:29:29.725Z,66.16
2019-01-27T21:32:03.844Z,67.05
2019-01-27T21:38:59.219Z,66.71
2019-01-27T21:39:53.136Z,66.44
2019-01-27T21:42:23.990Z,67.56
2019-01-27T21:44:56.049Z,67.21
2019-01-27T21:47:28.764Z,66.56
2019-01-27T21:49:59.331Z,67.52
2019-01-27T21:52:30.010Z,68.20
2019-01-27T21:55:00.429Z,69.08
2019-01-27T21:57:30.622Z,69.49
2019-01-27T22:00:01.110Z,68.37
2019-01-27T22:02:32.183Z,69.29
2019-01-27T22:05:02.692Z,68.67
2019-01-27T22:07:30.721Z,69.20
2019-01-27T22:09:58.668Z,69.31
2019-01-27T22:12:26.601Z,69.51
2019-01-27T22:14:54.522Z,68.92
2019-01-27T22:17:22.443Z,69.66
2019-01-27T22:21:37.791Z,69.39
2019-01-27T22:24:05.685Z,69.55
2019-01-27T22:27:26.331Z,70.49
2019-01-27T22:29:54.917Z,70.79
2019-01-27T22:32:22.943Z,69.34
2019-01-27T22:34:50.790Z,70.71
2019-01-27T22:37:18.866Z,69.95
2019-01-27T22:39:48.814Z,70.87
2019-01-27T22:42:17.295Z,70.02
2019-01-27T22:44:47.117Z,70.55
2019-01-27T22:47:15.575Z,71.08
2019-01-27T22:49:44.663Z,70.94
2019-01-27T22:52:12.714Z,71.18
2019-01-27T22:54:40.594Z,71.84
2019-01-27T22:57:08.532Z,70.85
2019-01-27T22:59:36.468Z,70.65
2019-01-27T23:02:05.186Z,70.99
2019-01-27T23:04:33.189Z,71.93
2019-01-27T23:07:01.570Z,71.29
2019-01-27T23:09:29.654Z,72.29
2019-01-27T23:11:57.644Z,71.21
2019-01-27T23:14:25.692Z,71.42
2019-01-27T23:16:53.940Z,71.71
2019-01-27T23:19:21.924Z,72.15
2019-01-27T23:21:49.872Z,71.68
2019-01-27T23:24:17.782Z,71.27
2019-01-27T23:26:45.907Z,71.72
2019-01-27T23:30:45.317Z,72.01
2019-01-27T23:33:13.288Z,71.57
2019-01-27T23:35:41.177Z,71.93
2019-01-27T23:38:09.767Z,71.43
2019-01-27T23:40:37.801Z,71.71
2019-01-27T23:43:06.131Z,71.89
2019-01-27T23:45:34.298Z,71.46
2019-01-27T23:48:05.027Z,71.24
2019-01-27T23:50:33.039Z,71.15
2019-01-27T23:53:01.752Z,71.92
2019-01-27T23:55:29.667Z,71.76
2019-01-27T23:57:57.702Z,71.73
